Time;durP1;ratioP1;P1;durP2;ratioP2;P2;SDS_P1;SDS_P2;PMS_P1;PMS_P2;Temp;Humidity;BMP_temperature;BMP_pressure;BME280_temperature;BME280_humidity;BME280_pressure;Samples;Min_cycle;Max_cycle;Signal;HPM_P1;HPM_P2
2022/04/01 00:00:35;;;;;;;1.52;0.80;;;2.30;99.90;;;;;;5023950;28;20053;-58
2022/04/01 00:03:02;;;;;;;1.63;0.80;;;2.30;99.90;;;;;;5023843;28;20164;-56
2022/04/01 00:05:29;;;;;;;3.15;0.85;;;2.30;99.90;;;;;;5023650;28;20156;-57
2022/04/01 00:07:56;;;;;;;2.58;0.82;;;2.30;99.90;;;;;;5024284;28;20136;-59
2022/04/01 00:10:23;;;;;;;2.40;0.77;;;2.30;99.90;;;;;;5024775;28;20752;-58
2022/04/01 00:12:49;;;;;;;2.05;0.73;;;2.40;99.90;;;;;;5023679;28;20129;-57
2022/04/01 00:15:16;;;;;;;1.95;0.93;;;2.40;99.90;;;;;;5009622;28;20069;-57
2022/04/01 00:17:43;;;;;;;1.80;0.98;;;2.50;99.90;;;;;;5009964;28;20077;-58
2022/04/01 00:20:11;;;;;;;1.73;1.10;;;2.50;99.90;;;;;;5012316;28;20450;-55
2022/04/01 00:22:37;;;;;;;1.77;0.80;;;2.50;99.90;;;;;;5009951;28;20076;-58
2022/04/01 00:25:05;;;;;;;3.13;1.10;;;2.50;99.90;;;;;;5011619;28;20136;-59
2022/04/01 00:27:31;;;;;;;0.85;0.60;;;2.50;99.90;;;;;;5003807;28;20141;-58
2022/04/01 00:29:58;;;;;;;1.95;0.77;;;2.50;99.90;;;;;;5005117;28;20876;-58
2022/04/01 00:32:25;;;;;;;2.00;0.90;;;2.40;99.90;;;;;;5012851;28;20052;-54
2022/04/01 00:34:52;;;;;;;2.33;0.80;;;2.40;99.90;;;;;;5022352;28;20582;-56
2022/04/01 00:37:19;;;;;;;3.25;1.10;;;2.30;99.90;;;;;;5003281;28;20564;-58
2022/04/01 00:39:45;;;;;;;0.93;0.70;;;2.30;99.90;;;;;;5012814;28;20144;-58
2022/04/01 00:42:12;;;;;;;1.33;0.70;;;2.20;99.90;;;;;;5020816;28;20073;-57
2022/04/01 00:44:40;;;;;;;1.73;0.88;;;2.20;99.90;;;;;;5013481;28;20531;-58
2022/04/01 00:47:11;;;;;;;5.03;1.20;;;2.20;99.90;;;;;;5013709;28;20103;-58
2022/04/01 00:49:39;;;;;;;3.20;0.90;;;2.20;99.90;;;;;;5022511;28;20108;-56
2022/04/01 00:52:11;;;;;;;1.90;1.00;;;2.10;99.90;;;;;;5016908;28;20627;-56
2022/04/01 00:54:38;;;;;;;2.17;0.85;;;2.10;99.90;;;;;;5021524;28;20137;-57
2022/04/01 00:57:05;;;;;;;0.95;0.70;;;2.10;99.90;;;;;;5023067;28;20166;-56
2022/04/01 00:59:32;;;;;;;2.65;0.80;;;2.10;99.90;;;;;;5023003;28;20073;-58
2022/04/01 01:02:00;;;;;;;3.53;1.10;;;2.10;99.90;;;;;;5020789;28;20571;-57
2022/04/01 01:04:27;;;;;;;2.00;1.23;;;2.10;99.90;;;;;;5012018;28;20107;-58
2022/04/01 01:06:57;;;;;;;0.90;0.60;;;2.20;99.90;;;;;;5023539;28;20367;-57
2022/04/01 01:09:25;;;;;;;5.53;1.25;;;2.30;99.90;;;;;;5022059;28;20144;-56
2022/04/01 01:11:52;;;;;;;1.77;1.08;;;2.30;99.90;;;;;;5022717;28;20092;-58
2022/04/01 01:14:24;;;;;;;3.83;1.17;;;2.30;99.90;;;;;;5021723;28;20144;-56
2022/04/01 01:16:51;;;;;;;1.83;1.00;;;2.30;99.90;;;;;;5022290;28;20149;-57
2022/04/01 01:19:18;;;;;;;1.75;0.90;;;2.20;99.90;;;;;;5021894;28;20136;-56
2022/04/01 01:21:46;;;;;;;1.77;0.85;;;2.10;99.90;;;;;;5023003;28;20440;-56
2022/04/01 01:24:15;;;;;;;1.63;0.90;;;2.10;99.90;;;;;;5022438;28;20053;-57
2022/04/01 01:26:50;;;;;;;1.50;0.90;;;2.00;99.90;;;;;;5023338;28;20111;-56
2022/04/01 01:29:25;;;;;;;2.92;1.42;;;2.00;99.90;;;;;;5020629;28;20552;-57
2022/04/01 01:32:00;;;;;;;1.60;1.00;;;2.00;99.90;;;;;;5019844;28;20111;-57
2022/04/01 01:34:28;;;;;;;2.22;1.10;;;2.00;99.90;;;;;;5005296;28;20112;-59
2022/04/01 01:36:56;;;;;;;3.70;1.08;;;1.90;99.90;;;;;;5005020;28;20505;-54
2022/04/01 01:39:23;;;;;;;3.38;1.63;;;1.90;99.90;;;;;;5011772;28;20389;-57
2022/04/01 01:41:50;;;;;;;1.77;1.05;;;1.90;99.90;;;;;;5023105;28;20208;-58
2022/04/01 01:44:17;;;;;;;3.40;1.10;;;1.90;99.90;;;;;;5019316;28;20497;-57
2022/04/01 01:46:44;;;;;;;2.08;1.15;;;1.90;99.90;;;;;;5003896;28;20068;-55
2022/04/01 01:49:11;;;;;;;2.83;1.27;;;1.90;99.90;;;;;;5004080;28;20124;-54
2022/04/01 01:54:43;;;;;;;3.03;1.50;;;1.90;99.90;;;;;;5024321;28;20132;-56
2022/04/01 01:57:11;;;;;;;5.47;1.40;;;1.90;99.90;;;;;;5023367;28;20111;-58
2022/04/01 01:59:38;;;;;;;3.33;1.23;;;1.90;99.90;;;;;;5024242;28;20088;-56
2022/04/01 02:02:07;;;;;;;4.88;1.63;;;2.00;99.90;;;;;;5022612;28;20136;-58
2022/04/01 02:04:35;;;;;;;3.17;1.48;;;1.90;99.90;;;;;;5023363;28;20077;-58
2022/04/01 02:07:02;;;;;;;3.20;1.63;;;1.90;99.90;;;;;;5022978;28;20081;-58
2022/04/01 02:09:29;;;;;;;2.67;1.67;;;1.90;99.90;;;;;;5023059;28;20061;-57
2022/04/01 02:11:56;;;;;;;2.72;1.58;;;1.90;99.90;;;;;;5024174;28;20128;-55
2022/04/01 02:14:23;;;;;;;1.50;1.27;;;1.90;99.90;;;;;;5023247;28;20076;-57
2022/04/01 02:16:50;;;;;;;3.20;1.95;;;1.90;99.90;;;;;;5023824;28;20080;-55
2022/04/01 02:19:21;;;;;;;3.47;1.85;;;1.80;99.90;;;;;;5023443;28;20049;-57
2022/04/01 02:21:48;;;;;;;2.25;1.67;;;1.80;99.90;;;;;;5023871;28;20054;-58
2022/04/01 02:24:17;;;;;;;5.18;2.10;;;1.80;99.90;;;;;;5023833;28;20579;-59
2022/04/01 02:26:47;;;;;;;6.60;1.88;;;1.70;99.90;;;;;;5023727;28;20066;-58
2022/04/01 02:29:20;;;;;;;3.03;2.20;;;1.80;99.90;;;;;;5023757;28;20049;-58
2022/04/01 02:31:49;;;;;;;4.53;3.05;;;1.70;99.90;;;;;;5002630;28;20136;-58
2022/04/01 02:34:17;;;;;;;3.92;1.90;;;1.80;99.90;;;;;;5004611;28;20488;-57
2022/04/01 02:36:44;;;;;;;4.40;2.13;;;1.80;99.90;;;;;;5004164;28;20137;-58
2022/04/01 02:39:11;;;;;;;4.15;2.03;;;1.80;99.90;;;;;;5003726;28;20169;-54
2022/04/01 02:41:37;;;;;;;3.38;1.70;;;1.80;99.90;;;;;;5009905;28;20436;-58
2022/04/01 02:44:12;;;;;;;2.78;1.80;;;1.80;99.90;;;;;;5023281;28;20228;-57
2022/04/01 02:46:43;;;;;;;4.88;1.92;;;1.80;99.90;;;;;;5023037;28;20850;-57
2022/04/01 02:49:14;;;;;;;3.25;1.58;;;1.80;99.90;;;;;;5021825;28;20053;-56
2022/04/01 02:51:44;;;;;;;3.90;1.60;;;1.80;99.90;;;;;;5022065;28;20053;-57
2022/04/01 02:54:11;;;;;;;4.50;1.80;;;1.80;99.90;;;;;;5023542;28;20054;-57
2022/04/01 02:56:38;;;;;;;3.63;1.67;;;1.70;99.90;;;;;;5022301;28;20076;-57
2022/04/01 02:59:09;;;;;;;3.50;1.42;;;1.80;99.90;;;;;;5022065;28;20103;-58
2022/04/01 03:01:36;;;;;;;3.78;1.85;;;1.70;99.90;;;;;;5022419;28;20089;-57
2022/04/01 03:04:04;;;;;;;2.88;1.55;;;1.80;99.90;;;;;;5022092;28;20060;-57
2022/04/01 03:06:33;;;;;;;2.78;2.22;;;1.70;99.90;;;;;;5022160;28;20084;-58
2022/04/01 03:09:00;;;;;;;3.83;1.63;;;1.70;99.90;;;;;;5023689;28;20049;-58
2022/04/01 03:11:27;;;;;;;3.15;1.50;;;1.70;99.90;;;;;;5023285;28;20080;-58
2022/04/01 03:13:53;;;;;;;2.38;1.48;;;1.70;99.90;;;;;;5023063;28;20367;-56
2022/04/01 03:16:20;;;;;;;4.88;1.58;;;1.70;99.90;;;;;;5021622;28;20800;-57
2022/04/01 03:18:47;;;;;;;3.78;1.40;;;1.70;99.90;;;;;;5019028;28;20042;-58
2022/04/01 03:21:14;;;;;;;3.67;1.33;;;1.70;99.90;;;;;;5014424;28;20077;-57
2022/04/01 03:23:43;;;;;;;3.50;1.25;;;1.70;99.90;;;;;;5018367;28;20042;-56
2022/04/01 03:26:10;;;;;;;2.75;1.40;;;1.70;99.90;;;;;;5007918;28;20061;-56
2022/04/01 03:28:37;;;;;;;6.60;2.10;;;1.70;99.90;;;;;;5004056;28;20050;-57
2022/04/01 03:31:04;;;;;;;3.25;1.42;;;1.70;99.90;;;;;;5005256;28;20499;-58
2022/04/01 03:33:32;;;;;;;2.85;1.48;;;1.70;99.90;;;;;;5004434;28;20038;-57
2022/04/01 03:35:59;;;;;;;2.53;1.20;;;1.70;99.90;;;;;;5016972;28;20136;-57
2022/04/01 03:38:27;;;;;;;2.58;1.20;;;1.70;99.90;;;;;;5009300;28;20089;-57
2022/04/01 03:40:53;;;;;;;3.30;1.50;;;1.70;99.90;;;;;;5007801;28;20080;-57
2022/04/01 03:43:21;;;;;;;4.80;1.90;;;1.70;99.90;;;;;;5023287;28;20073;-58
2022/04/01 03:45:51;;;;;;;6.30;1.60;;;1.70;99.90;;;;;;5024390;28;20049;-58
2022/04/01 03:48:23;;;;;;;2.22;1.20;;;1.70;99.90;;;;;;5022748;28;20405;-57
2022/04/01 03:50:57;;;;;;;2.05;1.23;;;1.70;99.90;;;;;;5024322;28;20077;-57
2022/04/01 03:53:26;;;;;;;3.05;1.20;;;1.70;99.90;;;;;;5019087;28;20076;-58
2022/04/01 03:55:57;;;;;;;1.85;1.17;;;1.70;99.90;;;;;;5005157;28;20053;-56
2022/04/01 03:58:29;;;;;;;2.83;1.38;;;1.70;99.90;;;;;;5004239;28;20046;-58
2022/04/01 04:01:00;;;;;;;2.78;1.40;;;1.70;99.90;;;;;;5015360;28;20148;-57
2022/04/01 04:03:29;;;;;;;1.80;1.27;;;1.70;99.90;;;;;;5014547;28;20569;-57
2022/04/01 04:05:56;;;;;;;2.85;1.50;;;1.70;99.90;;;;;;5002957;28;20054;-57
2022/04/01 04:08:23;;;;;;;5.35;1.60;;;1.70;99.90;;;;;;5004678;28;20212;-58
2022/04/01 04:10:50;;;;;;;5.45;1.83;;;1.70;99.90;;;;;;5003168;28;20146;-54
2022/04/01 04:13:17;;;;;;;3.90;1.83;;;1.70;99.90;;;;;;5008773;28;20072;-57
2022/04/01 04:16:04;;;;;;;4.47;1.85;;;1.70;99.90;;;;;;5021466;28;20093;-55
2022/04/01 04:18:42;;;;;;;2.78;1.58;;;1.70;99.90;;;;;;5017628;28;20131;-53
2022/04/01 04:21:13;;;;;;;4.20;1.50;;;1.70;99.90;;;;;;5027071;28;20056;-58
2022/04/01 04:23:46;;;;;;;3.22;1.77;;;1.70;99.90;;;;;;5020559;28;20531;-56
2022/04/01 04:26:21;;;;;;;7.28;1.80;;;1.70;99.90;;;;;;5027965;28;20508;-58
2022/04/01 04:28:50;;;;;;;5.57;1.77;;;1.70;99.90;;;;;;5025860;28;20147;-56
2022/04/01 04:31:28;;;;;;;4.22;1.75;;;1.70;99.90;;;;;;5026941;28;20348;-56
2022/04/01 04:33:56;;;;;;;3.70;1.60;;;1.70;99.90;;;;;;5021810;28;20049;-56
2022/04/01 04:36:36;;;;;;;5.53;1.80;;;1.80;99.90;;;;;;5007269;28;20050;-56
2022/04/01 04:39:05;;;;;;;3.83;1.90;;;1.80;99.90;;;;;;5007579;28;20054;-57
2022/04/01 04:41:32;;;;;;;3.33;1.63;;;1.80;99.90;;;;;;5007770;28;20137;-56
2022/04/01 04:43:59;;;;;;;2.50;1.40;;;1.80;99.90;;;;;;5021595;28;20073;-54
2022/04/01 04:46:27;;;;;;;2.78;1.50;;;1.80;99.90;;;;;;5025787;28;20418;-56
2022/04/01 04:48:54;;;;;;;3.40;1.77;;;1.80;99.90;;;;;;5017541;28;20070;-57
2022/04/01 04:51:23;;;;;;;3.63;1.67;;;1.80;99.90;;;;;;5018725;28;20141;-56
2022/04/01 04:53:50;;;;;;;4.72;1.80;;;1.70;99.90;;;;;;5023914;28;20081;-58
2022/04/01 04:56:20;;;;;;;3.72;1.83;;;1.70;99.90;;;;;;5018802;28;20148;-58
2022/04/01 04:58:47;;;;;;;3.67;1.25;;;1.70;99.90;;;;;;5022867;28;20148;-57
2022/04/01 05:01:24;;;;;;;3.30;1.65;;;1.70;99.90;;;;;;5022272;28;20061;-56
2022/04/01 05:04:00;;;;;;;2.75;1.52;;;1.70;99.90;;;;;;5008571;28;20088;-56
2022/04/01 05:06:29;;;;;;;6.10;1.80;;;1.70;99.90;;;;;;5003780;28;20413;-58
2022/04/01 05:09:03;;;;;;;2.47;1.40;;;1.70;99.90;;;;;;5018106;28;20453;-53
2022/04/01 05:11:51;;;;;;;4.88;2.00;;;1.70;99.90;;;;;;4992521;28;20356;-56
2022/04/01 05:14:43;;;;;;;4.13;2.05;;;1.70;99.90;;;;;;5020203;28;20088;-58
2022/04/01 05:17:15;;;;;;;5.20;1.85;;;1.70;99.90;;;;;;5019694;28;20096;-57
2022/04/01 05:19:47;;;;;;;2.70;2.15;;;1.80;99.90;;;;;;5019670;28;20136;-54
2022/04/01 05:22:13;;;;;;;5.63;2.30;;;1.80;99.90;;;;;;5023060;28;20069;-59
2022/04/01 05:24:42;;;;;;;3.35;1.60;;;1.90;99.90;;;;;;5012968;28;20265;-57
2022/04/01 05:27:31;;;;;;;5.03;1.63;;;1.90;99.90;;;;;;5022059;28;20053;-56
2022/04/01 05:30:16;;;;;;;3.45;2.10;;;1.90;99.90;;;;;;5026160;28;20068;-58
2022/04/01 05:33:10;;;;;;;5.05;1.60;;;2.00;99.90;;;;;;5014374;28;20984;-56
2022/04/01 05:35:40;;;;;;;3.00;1.63;;;2.00;99.90;;;;;;5020936;28;20103;-58
2022/04/01 05:38:10;;;;;;;4.05;1.58;;;2.00;99.90;;;;;;5026779;28;20302;-58
2022/04/01 05:40:38;;;;;;;3.63;1.55;;;2.00;99.90;;;;;;5026544;28;20063;-58
2022/04/01 05:43:06;;;;;;;3.60;2.00;;;2.00;99.90;;;;;;5025336;28;20114;-58
2022/04/01 05:45:33;;;;;;;4.15;1.67;;;1.90;99.90;;;;;;5023753;28;20131;-58
2022/04/01 05:48:00;;;;;;;4.47;1.70;;;2.00;99.90;;;;;;5021674;28;20053;-57
2022/04/01 05:50:28;;;;;;;3.75;1.77;;;1.90;99.90;;;;;;5001891;28;20084;-58
2022/04/01 05:52:55;;;;;;;2.90;1.55;;;1.90;99.90;;;;;;5019131;28;20523;-58
2022/04/01 05:55:23;;;;;;;3.53;1.83;;;1.90;99.90;;;;;;5018639;28;20049;-58
2022/04/01 05:57:51;;;;;;;2.95;1.70;;;2.00;99.90;;;;;;5019929;28;20561;-58
2022/04/01 06:00:18;;;;;;;2.55;1.50;;;2.00;99.90;;;;;;5011166;28;20130;-57
2022/04/01 06:02:54;;;;;;;6.65;1.77;;;2.00;99.90;;;;;;5030501;28;20111;-56
2022/04/01 06:05:36;;;;;;;4.35;1.40;;;2.00;99.90;;;;;;5022995;28;20052;-58
2022/04/01 06:08:21;;;;;;;6.25;1.58;;;2.00;99.90;;;;;;5007885;28;20501;-60
2022/04/01 06:11:03;;;;;;;4.63;1.70;;;2.00;99.90;;;;;;5002364;28;20107;-59
2022/04/01 06:13:49;;;;;;;2.95;1.50;;;2.00;99.90;;;;;;5010105;28;20054;-59
2022/04/01 06:16:34;;;;;;;3.25;1.10;;;2.00;99.90;;;;;;5013606;28;20488;-59
2022/04/01 06:19:19;;;;;;;2.97;1.50;;;2.10;99.90;;;;;;5011479;28;20049;-59
2022/04/01 06:22:03;;;;;;;2.25;1.27;;;2.10;99.90;;;;;;5012200;28;20164;-59
2022/04/01 06:24:38;;;;;;;2.15;1.20;;;2.20;99.90;;;;;;5010112;28;20067;-59
2022/04/01 06:27:05;;;;;;;3.88;1.25;;;2.20;99.90;;;;;;5003359;28;20483;-60
2022/04/01 06:29:39;;;;;;;4.60;1.40;;;2.30;99.90;;;;;;4996875;28;20048;-59
2022/04/01 06:32:06;;;;;;;2.58;1.30;;;2.40;99.90;;;;;;5003220;28;20080;-57
2022/04/01 06:34:49;;;;;;;4.15;1.85;;;2.40;99.90;;;;;;5009608;28;20133;-59
2022/04/01 06:37:40;;;;;;;4.07;1.40;;;2.40;99.90;;;;;;5008913;28;20508;-59
2022/04/01 06:40:11;;;;;;;3.42;1.45;;;2.50;99.90;;;;;;5013836;28;20379;-59
2022/04/01 06:42:38;;;;;;;4.45;1.40;;;2.60;99.90;;;;;;5007105;28;20630;-60
2022/04/01 06:45:09;;;;;;;5.97;1.70;;;2.50;99.90;;;;;;5006078;28;20750;-60
2022/04/01 06:47:40;;;;;;;2.42;1.15;;;2.50;99.90;;;;;;4999326;28;20477;-60
2022/04/01 06:50:07;;;;;;;3.83;1.75;;;2.60;99.90;;;;;;5003025;28;20220;-59
2022/04/01 06:52:34;;;;;;;3.58;1.58;;;2.50;99.90;;;;;;5001474;28;20086;-59
2022/04/01 06:55:00;;;;;;;4.97;1.38;;;2.50;99.90;;;;;;5011354;28;20180;-59
2022/04/01 06:57:27;;;;;;;5.10;2.22;;;2.50;99.90;;;;;;5013993;28;20559;-59
2022/04/01 06:59:54;;;;;;;3.95;1.58;;;2.40;99.90;;;;;;4998207;28;20167;-60
2022/04/01 07:02:21;;;;;;;6.03;2.10;;;2.40;99.90;;;;;;5003049;28;20459;-59
2022/04/01 07:04:48;;;;;;;3.60;1.40;;;2.40;99.90;;;;;;5009259;28;20504;-58
2022/04/01 07:07:15;;;;;;;6.47;1.90;;;2.40;99.90;;;;;;5025973;28;20128;-58
2022/04/01 07:09:42;;;;;;;2.97;1.40;;;2.30;99.90;;;;;;5012272;28;20148;-58
2022/04/01 07:12:09;;;;;;;3.83;1.70;;;2.30;99.90;;;;;;5035758;28;20084;-58
2022/04/01 07:14:35;;;;;;;3.45;1.92;;;2.30;99.90;;;;;;5014590;28;20061;-58
2022/04/01 07:17:02;;;;;;;4.72;1.70;;;2.30;99.90;;;;;;5017350;28;20514;-58
2022/04/01 07:19:29;;;;;;;2.28;1.42;;;2.30;99.90;;;;;;5013657;28;20699;-58
2022/04/01 07:21:56;;;;;;;2.63;1.40;;;2.40;99.90;;;;;;5009670;28;20050;-60
2022/04/01 07:24:23;;;;;;;4.68;1.75;;;2.40;99.90;;;;;;5012178;28;20463;-58
2022/04/01 07:26:51;;;;;;;4.28;2.20;;;2.40;99.90;;;;;;5025278;28;20050;-58
2022/04/01 07:29:18;;;;;;;3.25;1.55;;;2.50;99.90;;;;;;5005108;28;20141;-59
2022/04/01 07:34:38;;;;;;;2.38;1.55;;;2.60;99.90;;;;;;5014498;28;20049;-59
2022/04/01 07:37:05;;;;;;;3.90;1.70;;;2.70;99.90;;;;;;5030704;28;20136;-58
2022/04/01 07:39:32;;;;;;;2.85;1.60;;;2.80;99.90;;;;;;5000440;28;20224;-58
2022/04/01 07:41:58;;;;;;;3.63;1.45;;;2.80;99.90;;;;;;4999088;28;20160;-58
2022/04/01 07:44:25;;;;;;;3.78;1.70;;;2.90;99.90;;;;;;5014612;28;20110;-57
2022/04/01 07:46:52;;;;;;;3.85;1.73;;;3.00;99.90;;;;;;5016563;28;20056;-59
2022/04/01 07:49:19;;;;;;;3.13;2.15;;;3.10;99.90;;;;;;5003437;28;20069;-59
2022/04/01 07:52:08;;;;;;;3.72;1.52;;;3.10;99.90;;;;;;5030569;28;20489;-59
2022/04/01 07:54:45;;;;;;;3.17;1.55;;;3.20;99.90;;;;;;5021253;28;20576;-59
2022/04/01 07:57:12;;;;;;;4.30;1.80;;;3.30;99.90;;;;;;5021099;28;20053;-58
2022/04/01 07:59:39;;;;;;;4.10;1.60;;;3.30;99.90;;;;;;5021166;28;20053;-58
2022/04/01 08:02:06;;;;;;;3.92;1.70;;;3.40;99.90;;;;;;5019531;28;20144;-59
2022/04/01 08:04:33;;;;;;;3.45;1.60;;;3.50;99.90;;;;;;5020289;28;20060;-59
2022/04/01 08:07:05;;;;;;;4.47;2.25;;;3.50;99.90;;;;;;5016559;28;20132;-59
2022/04/01 08:09:33;;;;;;;3.78;1.77;;;3.50;99.90;;;;;;5013766;28;20243;-59
2022/04/01 08:12:01;;;;;;;4.35;1.60;;;3.60;99.90;;;;;;5015508;28;20549;-58
2022/04/01 08:14:28;;;;;;;9.30;2.13;;;3.70;99.90;;;;;;5006915;28;20068;-57
2022/04/01 08:16:54;;;;;;;3.17;1.83;;;3.80;99.90;;;;;;5002255;28;20192;-58
2022/04/01 08:19:22;;;;;;;4.15;1.52;;;4.00;99.90;;;;;;5010941;28;20500;-59
2022/04/01 08:21:49;;;;;;;4.53;1.70;;;4.00;99.90;;;;;;5009766;28;20519;-59
2022/04/01 08:24:16;;;;;;;3.97;1.60;;;4.10;99.90;;;;;;5020983;28;20597;-58
2022/04/01 08:26:43;;;;;;;5.32;1.30;;;4.30;99.90;;;;;;5027312;28;20387;-58
2022/04/01 08:29:10;;;;;;;3.95;1.52;;;4.50;99.90;;;;;;5032971;28;20076;-59
2022/04/01 08:31:37;;;;;;;3.83;1.80;;;4.30;99.90;;;;;;5011472;28;20204;-58
2022/04/01 08:34:04;;;;;;;4.40;1.48;;;4.10;99.90;;;;;;5018587;28;20063;-59
2022/04/01 08:36:31;;;;;;;6.57;1.83;;;4.00;99.90;;;;;;5012458;28;20659;-59
2022/04/01 08:38:58;;;;;;;2.25;1.23;;;4.00;99.90;;;;;;5019550;28;20630;-59
2022/04/01 08:41:24;;;;;;;3.15;1.20;;;4.20;99.90;;;;;;5017306;28;20137;-60
2022/04/01 08:43:51;;;;;;;3.17;1.33;;;4.30;99.90;;;;;;5019863;28;20085;-59
2022/04/01 08:46:19;;;;;;;5.90;1.80;;;4.30;99.90;;;;;;5014373;28;20231;-59
2022/04/01 08:48:46;;;;;;;4.00;1.67;;;4.20;99.90;;;;;;5005308;28;20353;-59
2022/04/01 08:51:13;;;;;;;2.75;1.13;;;4.30;99.90;;;;;;4999381;28;20108;-59
2022/04/01 08:53:43;;;;;;;4.68;1.50;;;4.40;99.90;;;;;;5008035;28;20077;-59
2022/04/01 08:56:09;;;;;;;9.23;1.98;;;4.50;99.90;;;;;;5013019;28;20050;-59
2022/04/01 08:58:36;;;;;;;6.53;2.15;;;4.60;99.90;;;;;;5001684;28;20196;-59
2022/04/01 09:01:05;;;;;;;6.93;1.73;;;4.60;99.90;;;;;;5018474;28;20132;-59
2022/04/01 09:03:32;;;;;;;2.97;1.25;;;4.70;99.90;;;;;;5017792;28;20444;-59
2022/04/01 09:06:03;;;;;;;6.85;1.42;;;4.80;99.90;;;;;;4999497;28;20144;-59
2022/04/01 09:08:33;;;;;;;6.38;1.25;;;4.90;99.90;;;;;;5012751;28;20077;-60
2022/04/01 09:11:02;;;;;;;6.05;1.50;;;4.90;99.90;;;;;;5029639;28;20448;-59
2022/04/01 09:13:29;;;;;;;4.18;1.60;;;5.00;99.90;;;;;;5016304;28;20478;-59
2022/04/01 09:15:56;;;;;;;5.70;1.40;;;5.10;99.90;;;;;;5037551;28;20072;-59
2022/04/01 09:18:41;;;;;;;4.18;1.73;;;5.20;99.90;;;;;;5026615;28;20377;-59
2022/04/01 09:21:09;;;;;;;;;;;5.30;99.90;;;;;;5019001;28;20128;-59
2022/04/01 09:23:36;;;;;;;3.97;1.17;;;5.50;99.90;;;;;;5017926;28;20298;-59
2022/04/01 09:26:03;;;;;;;3.70;1.13;;;5.70;99.90;;;;;;4998948;28;20062;-59
2022/04/01 09:28:31;;;;;;;4.60;1.38;;;5.70;99.90;;;;;;5001803;28;20532;-59
2022/04/01 09:31:10;;;;;;;4.60;1.40;;;5.60;99.90;;;;;;5005181;28;20057;-59
2022/04/01 09:33:57;;;;;;;3.92;1.35;;;5.60;99.90;;;;;;5017900;28;20045;-59
2022/04/01 09:36:36;;;;;;;2.28;1.02;;;5.70;99.90;;;;;;5020426;28;20140;-59
2022/04/01 09:39:08;;;;;;;4.13;1.10;;;5.90;99.90;;;;;;5016408;28;20453;-59
2022/04/01 09:41:38;;;;;;;3.42;1.10;;;6.00;99.90;;;;;;5015848;28;20420;-59
2022/04/01 09:44:27;;;;;;;3.35;1.02;;;6.10;99.90;;;;;;5010150;28;20049;-58
2022/04/01 09:46:56;;;;;;;3.85;0.73;;;6.10;99.90;;;;;;5005379;28;20057;-59
2022/04/01 09:49:39;;;;;;;3.55;1.00;;;6.30;99.90;;;;;;5021649;28;20123;-58
2022/04/01 09:52:09;;;;;;;4.70;1.13;;;6.40;99.90;;;;;;5017755;28;20046;-59
2022/04/01 09:54:46;;;;;;;3.85;1.23;;;6.40;99.90;;;;;;5021868;28;20068;-59
2022/04/01 09:57:14;;;;;;;3.63;1.30;;;6.50;99.90;;;;;;5021338;28;20491;-59
2022/04/01 09:59:44;;;;;;;3.22;1.20;;;6.60;99.90;;;;;;5023823;28;20049;-59
2022/04/01 10:02:14;;;;;;;3.92;1.23;;;6.70;99.90;;;;;;5022894;28;20045;-59
2022/04/01 10:04:41;;;;;;;3.55;0.82;;;6.70;99.90;;;;;;5011051;28;20481;-59
2022/04/01 10:07:08;;;;;;;4.25;1.38;;;6.80;99.90;;;;;;5029689;28;20088;-59
2022/04/01 10:09:36;;;;;;;6.88;1.17;;;6.50;99.90;;;;;;5024333;28;20053;-59
2022/04/01 10:12:25;;;;;;;3.72;0.93;;;6.30;99.90;;;;;;5025289;28;20052;-59
2022/04/01 10:14:55;;;;;;;3.90;1.40;;;6.50;99.90;;;;;;5014879;28;20139;-59
2022/04/01 10:17:26;;;;;;;4.43;1.23;;;6.90;99.90;;;;;;5025256;28;20049;-57
2022/04/01 10:19:53;;;;;;;2.70;0.75;;;7.20;99.90;;;;;;5010237;28;20060;-59
2022/04/01 10:22:20;;;;;;;3.08;1.00;;;7.20;99.90;;;;;;5011683;28;20415;-59
2022/04/01 10:25:11;;;;;;;2.20;1.33;;;7.10;99.90;;;;;;5018852;28;20136;-60
2022/04/01 10:27:40;;;;;;;2.42;0.93;;;7.00;99.90;;;;;;5013435;28;20042;-59
2022/04/01 10:30:08;;;;;;;3.92;1.10;;;6.70;99.90;;;;;;5000695;28;20582;-59
2022/04/01 10:32:42;;;;;;;5.03;1.20;;;6.40;99.90;;;;;;5017256;28;20132;-59
2022/04/01 10:35:29;;;;;;;2.90;1.20;;;6.10;99.90;;;;;;5017114;28;20480;-59
2022/04/01 10:38:15;;;;;;;3.42;1.23;;;5.80;99.90;;;;;;5023909;28;20053;-59
2022/04/01 10:40:45;;;;;;;2.92;0.95;;;5.80;99.90;;;;;;5017905;28;20139;-59
2022/04/01 10:43:22;;;;;;;2.25;0.70;;;6.00;99.90;;;;;;5023082;28;20127;-59
2022/04/01 10:46:02;;;;;;;2.40;1.02;;;6.40;99.90;;;;;;5010932;28;20076;-60
2022/04/01 10:51:36;;;;;;;1.45;0.50;;;7.00;99.90;;;;;;5025739;28;20128;-59
2022/04/01 10:54:12;;;;;;;1.88;0.75;;;7.10;99.90;;;;;;5023744;28;20048;-60
2022/04/01 10:56:41;;;;;;;2.67;0.93;;;7.10;99.90;;;;;;5027077;28;20095;-59
2022/04/01 10:59:11;;;;;;;2.45;1.00;;;7.20;99.90;;;;;;5017113;28;20132;-59
2022/04/01 11:01:40;;;;;;;1.95;0.70;;;7.40;99.90;;;;;;5020926;28;20064;-59
2022/04/01 11:04:12;;;;;;;2.50;0.73;;;7.50;99.90;;;;;;5025425;28;20495;-60
2022/04/01 11:06:55;;;;;;;4.03;1.17;;;7.70;99.90;;;;;;5026513;28;20140;-59
2022/04/01 11:09:50;;;;;;;6.68;2.15;;;7.70;99.90;;;;;;5023839;28;20075;-59
2022/04/01 11:12:21;;;;;;;4.95;1.30;;;7.70;99.90;;;;;;5022920;28;20128;-59
2022/04/01 11:14:58;;;;;;;2.10;0.70;;;8.00;99.90;;;;;;5024399;28;20057;-59
2022/04/01 11:17:35;;;;;;;2.38;0.90;;;8.40;99.30;;;;;;5022518;28;20540;-59
2022/04/01 11:20:09;;;;;;;3.25;0.95;;;8.60;98.40;;;;;;5022757;28;20067;-60
2022/04/01 11:22:37;;;;;;;4.32;0.90;;;8.80;95.90;;;;;;5022983;28;20145;-59
2022/04/01 11:25:05;;;;;;;3.03;1.25;;;9.00;93.70;;;;;;5021568;28;20091;-60
2022/04/01 11:27:33;;;;;;;3.30;1.33;;;9.00;92.30;;;;;;5030059;28;20147;-60
2022/04/01 11:30:13;;;;;;;3.08;0.98;;;9.20;90.90;;;;;;5025277;28;20107;-60
2022/04/01 11:32:41;;;;;;;2.10;0.90;;;9.30;88.30;;;;;;5016983;28;20132;-59
2022/04/01 11:35:09;;;;;;;3.33;0.88;;;9.20;88.10;;;;;;5007340;28;20413;-60
2022/04/01 11:37:44;;;;;;;4.32;1.10;;;9.60;81.30;;;;;;5000736;28;20609;-60
2022/04/01 11:40:18;;;;;;;2.15;0.70;;;9.70;75.90;;;;;;5026371;28;20652;-60
2022/04/01 11:43:04;;;;;;;2.42;0.80;;;10.10;72.40;;;;;;5023152;28;20133;-59
2022/04/01 11:45:33;;;;;;;1.45;0.50;;;10.50;68.70;;;;;;5024935;28;20277;-60
2022/04/01 11:48:00;;;;;;;1.38;0.65;;;10.60;65.20;;;;;;5020420;28;20077;-60
2022/04/01 11:50:27;;;;;;;1.65;0.70;;;10.50;66.90;;;;;;5029650;28;20099;-60
2022/04/01 11:52:57;;;;;;;1.42;0.85;;;10.60;68.70;;;;;;5028656;28;20128;-60
2022/04/01 11:55:25;;;;;;;2.95;0.75;;;10.40;72.30;;;;;;5028242;28;20060;-60
2022/04/01 11:57:53;;;;;;;2.53;0.80;;;9.80;71.00;;;;;;5015744;28;20514;-59
2022/04/01 12:00:25;;;;;;;1.73;0.68;;;9.40;72.20;;;;;;5027420;28;20153;-60
2022/04/01 12:02:52;;;;;;;2.05;1.10;;;9.30;75.00;;;;;;5019687;28;20056;-60
2022/04/01 12:05:20;;;;;;;2.63;1.20;;;9.30;72.80;;;;;;5024475;28;20133;-60
2022/04/01 12:10:40;;;;;;;1.77;0.75;;;8.80;74.00;;;;;;5029735;28;20061;-60
2022/04/01 12:13:09;;;;;;;2.10;0.80;;;8.80;72.50;;;;;;5027195;28;20097;-60
2022/04/01 12:15:44;;;;;;;3.05;0.70;;;8.90;71.90;;;;;;5030180;28;20183;-60
2022/04/01 12:18:16;;;;;;;3.03;1.20;;;8.90;73.10;;;;;;5026315;28;20056;-59
2022/04/01 12:20:44;;;;;;;2.15;0.88;;;9.10;75.70;;;;;;5029843;28;20342;-60
2022/04/01 12:23:14;;;;;;;2.92;0.90;;;8.90;77.60;;;;;;5027541;28;20496;-60
2022/04/01 12:25:42;;;;;;;1.98;0.90;;;8.70;80.90;;;;;;5029200;28;20060;-61
2022/04/01 12:28:10;;;;;;;1.50;0.90;;;8.90;84.20;;;;;;5028413;28;20053;-59
2022/04/01 12:30:44;;;;;;;3.38;1.05;;;9.20;80.60;;;;;;5029632;28;20064;-60
2022/04/01 12:33:18;;;;;;;2.13;0.90;;;9.50;78.90;;;;;;5025853;28;20412;-60
2022/04/01 12:36:08;;;;;;;1.05;0.68;;;9.90;75.10;;;;;;5027175;28;20130;-60
2022/04/01 12:38:40;;;;;;;1.90;0.85;;;10.00;73.20;;;;;;5026677;28;20199;-60
2022/04/01 12:41:15;;;;;;;1.80;0.80;;;9.90;72.30;;;;;;5025189;28;20114;-60
2022/04/01 12:43:49;;;;;;;1.33;0.70;;;10.40;75.00;;;;;;5023992;28;20147;-60
2022/04/01 12:46:37;;;;;;;1.30;0.70;;;10.80;73.40;;;;;;5023183;28;20098;-60
2022/04/01 12:49:20;;;;;;;3.22;1.75;;;11.60;74.40;;;;;;5022791;28;20092;-60
2022/04/01 12:51:51;;;;;;;3.03;1.30;;;12.30;70.40;;;;;;5025229;28;20069;-60
2022/04/01 12:54:32;;;;;;;2.33;1.42;;;11.70;70.80;;;;;;5021096;28;20501;-61
2022/04/01 12:57:01;;;;;;;2.72;1.13;;;10.70;72.90;;;;;;5028000;28;20527;-59
2022/04/01 12:59:36;;;;;;;1.95;0.75;;;9.70;77.10;;;;;;5019920;28;20065;-59
2022/04/01 13:02:12;;;;;;;2.38;1.00;;;9.20;80.20;;;;;;5027421;28;20054;-60
2022/04/01 13:04:45;;;;;;;1.55;0.85;;;8.90;86.70;;;;;;5020146;28;20962;-60
2022/04/01 13:07:12;;;;;;;;;;;8.40;93.20;;;;;;5028050;28;20146;-60
2022/04/01 13:09:59;;;;;;;2.08;0.57;;;8.30;94.60;;;;;;5007281;28;19925;-60
2022/04/01 13:12:32;;;;;;;1.63;0.70;;;8.70;95.30;;;;;;5023701;28;20699;-60
2022/04/01 13:15:09;;;;;;;1.83;0.60;;;9.40;92.90;;;;;;5025150;28;20402;-60
2022/04/01 13:17:40;;;;;;;2.22;0.75;;;10.00;91.70;;;;;;5020739;28;20077;-60
2022/04/01 13:20:08;;;;;;;2.80;0.80;;;9.90;90.60;;;;;;5015140;28;20507;-60
2022/04/01 13:22:35;;;;;;;2.70;0.93;;;9.40;90.20;;;;;;5037501;28;20500;-60
2022/04/01 13:25:03;;;;;;;2.20;1.05;;;8.60;91.60;;;;;;5033187;28;20281;-60
2022/04/01 13:27:30;;;;;;;2.05;0.63;;;8.20;92.40;;;;;;5017267;28;20081;-60